Terminal Aerodrome Forecast
Issued by NWS

Home | Current Version | Previous Version | Text Only | Print | Product List | Glossary On
Versions: 1 2 3 4 5 6 7 8 9 10 11 12 13 14 15
000
FTAK31 PAJN 110520
TAFAJN
TAF
PAJN 110520Z 1106/1206 VRB06KT P6SM FEW070 WS020/02030KT
     FM112000 09007KT P6SM SKC WS020/02025KT=

USA.gov is the U.S. government's official web portal to all federal, state and local government web resources and services.